Arthur, Iowa
Current Conditions -  °F | °C
As of 1:35 PM on Thursday 23 Oct 2014 (Local Time) from KSLB Reporting Station
Clear Clear  
Wind Chill: 18°   Ceiling: Unl
Heat Index: 18°   Visibility: 10mi
Dew Point: 11°   Wind: 7mph
Humidity: 64%   Direction: 260°W
Pressure: 30.04"   Gusts: NA
Location:  42.33°N, 95.35°W
Report Text: KSLB 231835Z AUTO 26006KT 10SM CLR 18/11 A3004 RMK AO2
Loading
Personal Weather Stations






























Interactive Weather Map
Tropical Storm Tracking
New forecast layout! Learn more

10-Day Weather Forecast

Advertisements
Track Severe Weather on mobile